Latest Weather Observations for Croker Island Airport

IDD60801

Issued at 1:01 pm CST Tuesday 30 November 2021 (issued every 10 minutes, with the page automatically refreshed every 10 minutes)

About weather observations | Map of weather stations | Latest weather observations for NT | Other Formats
Station Details ID: 014308 Name: CROKER ISLAND AIRPORT Lat: -11.16 Lon: 132.48 Height: 9.2 m
Data from the previous 72 hours. | See also: Recent months at Croker Island Airport
Date/Time
CST
Temp
°C
App
Temp
°C
Dew
Point
°C
Rel
Hum
%
Delta-T
°C
Wind Press
QNH
hPa
Press
MSL
hPa
Rain since
9am
mm
Dir  Spd
km/h
Gust
km/h
Spd
kts
Gust
kts
30/01:00pm 33.6 37.7 23.0 54 7.3 SW 6 7 3 4 1006.2 1006.1 0.0
30/12:30pm 33.6 37.2 22.4 52 7.7 SW 7 11 4 6 1006.9 1006.8 0.0
30/12:00pm 33.5 37.1 22.0 51 7.9 SW 6 9 3 5 1007.4 1007.3 0.0
30/11:30am 32.9 37.3 23.8 58 6.3 SSW 7 11 4 6 1007.9 1007.8 0.0
30/11:00am 32.2 36.4 23.2 59 6.2 SSW 6 9 3 5 1008.3 1008.2 0.0
30/10:30am 32.3 37.2 24.3 62 5.6 SSW 6 9 3 5 1008.7 1008.6 0.0
30/10:00am 31.5 36.4 24.4 66 5.0 SSW 6 7 3 4 1009.0 1008.9 0.0
30/09:30am 31.3 36.5 24.2 66 5.0 SSW 4 6 2 3 1009.1 1009.0 0.0
30/09:00am 30.7 36.2 24.6 70 4.3 SSW 4 6 2 3 1009.2 1009.1 8.4
30/08:30am 29.9 35.2 25.0 75 3.4 SSW 6 7 3 4 1009.2 1009.1 8.4
30/08:00am 28.7 34.7 25.5 83 2.3 SSW 4 6 2 3 1008.9 1008.8 8.4
30/07:30am 28.4 34.1 25.0 82 2.4 SSW 4 7 2 4 1008.7 1008.6 8.4
30/07:00am 28.4 33.7 25.2 83 2.2 SSW 7 15 4 8 1008.2 1008.1 8.4
30/06:30am 28.4 33.8 25.4 84 2.1 SW 7 13 4 7 1007.6 1007.5 8.4
30/06:00am 26.6 31.7 24.1 86 1.7 SW 4 6 2 3 1007.2 1007.1 8.4
30/05:30am 26.8 32.6 24.5 87 1.6 SW 2 4 1 2 1007.0 1006.9 8.4
30/05:00am 26.8 31.4 24.1 85 1.9 SW 7 9 4 5 1006.9 1006.8 8.4
30/04:30am 28.9 34.2 24.9 79 2.8 SW 6 9 3 5 1007.2 1007.1 8.4
30/04:00am 28.8 34.0 24.8 79 2.8 WSW 6 9 3 5 1006.8 1006.7 8.4
30/03:30am 28.9 34.1 25.1 80 2.7 WSW 7 9 4 5 1007.0 1006.9 8.4
30/03:00am 28.1 33.1 23.9 78 2.9 WSW 4 6 2 3 1007.1 1007.0 8.4
30/02:30am 29.1 33.4 23.3 71 4.0 WSW 6 7 3 4 1007.2 1007.1 8.4
30/02:00am 28.9 33.4 23.6 73 3.6 WSW 6 7 3 4 1007.3 1007.2 8.4
30/01:30am 29.1 33.3 23.5 72 3.9 WSW 7 11 4 6 1007.4 1007.3 8.4
30/01:00am 29.1 33.3 23.5 72 3.9 WSW 7 11 4 6 1007.6 1007.5 8.4
30/12:30am 29.1 33.7 23.8 73 3.7 WSW 6 9 3 5 1007.8 1007.7 8.4
30/12:00am 29.2 34.0 24.1 74 3.5 WSW 6 6 3 3 1008.2 1008.1 8.4
 
Date/Time
CST
Temp
°C
App
Temp
°C
Dew
Point
°C
Rel
Hum
%
Delta-T
°C
Wind Press
QNH
hPa
Press
MSL
hPa
Rain since
9am
mm
Dir  Spd
km/h
Gust
km/h
Spd
kts
Gust
kts
29/11:30pm 29.3 34.2 24.4 75 3.4 WSW 6 9 3 5 1008.3 1008.2 8.4
29/11:00pm 29.3 34.1 24.2 74 3.5 WSW 6 7 3 4 1008.4 1008.3 8.4
29/10:30pm 29.3 33.9 24.2 74 3.5 WSW 7 9 4 5 1008.4 1008.3 8.4
29/10:00pm 29.3 33.9 24.2 74 3.5 WSW 7 9 4 5 1008.2 1008.1 8.4
29/09:30pm 29.4 34.1 24.3 74 3.6 WSW 7 11 4 6 1008.1 1008.0 8.4
29/09:00pm 29.4 33.9 24.0 72 3.7 WSW 7 9 4 5 1007.9 1007.8 8.4
29/08:30pm 29.4 33.8 23.8 72 3.9 WSW 7 11 4 6 1007.5 1007.4 8.4
29/08:00pm 29.3 33.8 24.0 73 3.7 WSW 7 9 4 5 1007.2 1007.1 8.4
29/07:30pm 29.2 34.1 24.3 75 3.4 WSW 6 9 3 5 1006.6 1006.5 8.4
29/07:00pm 29.3 34.1 24.2 74 3.5 WSW 6 9 3 5 1006.2 1006.1 8.4
29/06:30pm 29.7 34.4 23.9 71 4.0 WSW 6 9 3 5 1005.8 1005.7 8.4
29/06:00pm 30.8 35.0 23.5 65 5.1 WSW 7 11 4 6 1005.5 1005.4 8.4
29/05:30pm 31.5 36.0 23.6 63 5.5 WSW 6 11 3 6 1005.5 1005.4 8.4
29/05:00pm 31.5 36.4 24.4 66 5.0 WSW 6 9 3 5 1005.5 1005.4 8.4
29/04:30pm 30.7 36.0 24.4 69 4.4 WSW 4 6 2 3 1005.6 1005.5 8.4
29/04:00pm 30.3 35.4 24.0 69 4.4 WSW 4 6 2 3 1005.7 1005.6 8.4
29/03:30pm 29.1 33.5 23.5 72 3.9 WSW 6 13 3 7 1006.1 1006.0 8.4
29/03:00pm 29.0 35.0 24.8 78 2.9 SSE 2 6 1 3 1006.6 1006.5 8.4
29/02:30pm 28.9 34.0 24.9 79 2.8 SSE 7 9 4 5 1006.7 1006.6 8.4
29/02:00pm 26.4 30.1 22.5 79 2.6 SSE 7 17 4 9 1006.9 1006.8 6.8
29/01:30pm 29.8 31.8 22.3 64 5.1 WNW 15 28 8 15 1007.0 1006.9 0.0
29/01:00pm 32.8 36.5 24.6 62 5.8 NW 13 17 7 9 1007.2 1007.1 0.0
29/12:30pm 33.1 37.5 25.1 63 5.7 NNW 11 17 6 9 1007.5 1007.4 0.0
29/12:00pm 33.3 38.6 25.3 63 5.7 S 7 9 4 5 1008.1 1008.0 0.0
29/11:30am 32.1 36.9 24.2 63 5.5 S 6 9 3 5 1008.7 1008.6 0.0
29/11:00am 32.1 36.9 24.4 63 5.4 S 7 9 4 5 1009.0 1008.9 0.0
29/10:30am 31.6 36.7 24.7 67 4.9 S 6 9 3 5 1009.4 1009.3 0.0
29/10:00am 31.3 36.4 24.7 68 4.6 S 6 9 3 5 1009.5 1009.4 0.0
29/09:30am 30.4 35.6 24.8 72 3.9 S 6 7 3 4 1009.5 1009.4 0.0
29/09:00am 30.4 35.5 25.0 73 3.8 S 7 13 4 7 1009.4 1009.3 0.0
29/08:30am 29.1 34.0 24.7 77 3.1 S 7 11 4 6 1009.3 1009.2 0.0
29/08:00am 29.4 34.5 24.9 77 3.2 S 7 11 4 6 1009.0 1008.9 0.0
29/07:30am 28.9 34.5 25.7 83 2.3 S 7 9 4 5 1008.8 1008.7 0.0
29/07:00am 27.3 33.2 25.9 92 1.0 S 6 6 3 3 1008.5 1008.4 0.0
29/06:30am 26.2 31.3 24.6 91 1.1 S 6 7 3 4 1008.1 1008.0 0.0
29/06:00am 26.0 30.8 24.2 90 1.2 S 6 6 3 3 1007.7 1007.6 0.0
29/05:30am 25.8 30.4 23.8 89 1.4 S 6 6 3 3 1007.3 1007.2 0.0
29/05:00am 26.0 30.7 24.0 89 1.4 S 6 6 3 3 1007.0 1006.9 0.0
29/04:30am 26.1 31.2 24.1 89 1.4 S 4 4 2 2 1006.6 1006.5 0.0
29/04:00am 26.0 30.7 24.0 89 1.4 S 6 6 3 3 1006.4 1006.3 0.0
29/03:30am 26.0 30.8 24.2 90 1.2 S 6 6 3 3 1006.3 1006.2 0.0
29/03:00am 26.1 31.0 24.3 90 1.2 S 6 6 3 3 1006.4 1006.3 0.0
29/02:30am 26.1 31.0 24.3 90 1.2 S 6 6 3 3 1006.6 1006.5 0.0
29/02:00am 26.1 31.0 24.3 90 1.2 S 6 7 3 4 1006.9 1006.8 0.0
29/01:30am 26.1 31.0 24.3 90 1.2 S 6 6 3 3 1007.0 1006.9 0.0
29/01:00am 26.2 31.0 24.2 89 1.4 S 6 9 3 5 1007.3 1007.2 0.0
29/12:30am 26.6 32.8 24.6 89 1.4 CALM 0 0 0 0 1007.5 1007.4 0.0
29/12:00am 26.8 33.0 24.6 88 1.5 CALM 0 0 0 0 1007.7 1007.6 0.0
 
Date/Time
CST
Temp
°C
App
Temp
°C
Dew
Point
°C
Rel
Hum
%
Delta-T
°C
Wind Press
QNH
hPa
Press
MSL
hPa
Rain since
9am
mm
Dir  Spd
km/h
Gust
km/h
Spd
kts
Gust
kts
28/11:30pm 27.0 33.3 24.8 88 1.5 CALM 0 0 0 0 1007.9 1007.8 0.0
28/11:00pm 27.3 33.7 24.9 87 1.7 CALM 0 0 0 0 1008.0 1007.9 0.0
28/10:30pm 27.6 34.1 25.0 86 1.8 CALM 0 0 0 0 1008.2 1008.1 0.0
28/10:00pm 27.6 34.1 25.0 86 1.8 CALM 0 0 0 0 1008.4 1008.3 0.0
28/09:30pm 27.9 34.4 25.1 85 2.0 CALM 0 0 0 0 1008.2 1008.1 0.0
28/09:00pm 28.1 34.4 24.7 82 2.4 CALM 0 2 0 1 1008.1 1008.0 0.0
28/08:30pm 28.5 34.4 24.7 80 2.7 S 2 4 1 2 1007.8 1007.7 0.0
28/08:00pm 28.6 33.7 24.6 79 2.8 S 6 7 3 4 1007.5 1007.4 0.0
28/07:30pm 28.7 34.1 24.5 78 2.9 S 4 6 2 3 1007.5 1007.4 0.0
28/07:00pm 29.1 35.5 24.9 78 2.9 CALM 0 0 0 0 1007.5 1007.4 0.0
28/06:30pm 29.2 34.8 24.3 75 3.4 S 2 6 1 3 1007.3 1007.2 0.0
28/06:00pm 29.5 35.6 24.4 74 3.6 CALM 0 0 0 0 1007.0 1006.9 0.0
28/05:30pm 29.0 34.5 24.6 77 3.1 S 4 7 2 4 1006.8 1006.7 0.0
28/05:00pm 29.0 33.9 24.3 76 3.3 S 6 7 3 4 1006.7 1006.6 0.0
28/04:30pm 28.4 32.2 24.0 77 3.0 S 11 17 6 9 1006.7 1006.6 0.0
28/04:00pm 28.6 32.5 24.2 77 3.1 SSW 11 15 6 8 1006.8 1006.7 0.0
28/03:30pm 28.9 33.0 24.0 75 3.4 SSW 9 15 5 8 1007.0 1006.9 0.0
28/03:00pm 30.3 34.4 23.0 65 5.0 NNE 6 15 3 8 1007.3 1007.2 0.0
28/02:30pm 31.7 35.9 23.2 60 5.9 NNE 6 9 3 5 1007.3 1007.2 0.0
28/02:00pm 31.8 35.3 22.2 56 6.5 NNE 7 11 4 6 1007.6 1007.5 0.0
28/01:30pm 32.7 36.0 23.9 60 6.1 NNE 13 19 7 10 1008.0 1007.9 0.0
28/01:00pm 32.7 35.5 23.6 58 6.3 NE 15 22 8 12 1008.3 1008.2 0.0
28/12:30pm 33.3 36.1 23.6 56 6.8 NE 15 26 8 14 1008.4 1008.3 0.0
28/12:00pm 32.6 36.1 23.5 58 6.3 NE 11 17 6 9 1008.7 1008.6 0.0
28/11:30am 32.6 37.2 23.8 59 6.1 ENE 6 11 3 6 1009.4 1009.3 0.0
28/11:00am 31.9 36.9 24.5 65 5.2 NNE 6 9 3 5 1009.8 1009.7 0.0
28/10:30am 30.8 35.3 24.0 67 4.7 NNE 7 13 4 7 1009.8 1009.7 0.0
28/10:00am 30.6 35.6 24.5 70 4.3 NNE 6 9 3 5 1009.9 1009.8 0.0
28/09:30am 29.8 33.6 22.8 66 4.8 NNE 7 15 4 8 1010.0 1009.9 0.0
28/09:00am 28.7 31.2 23.1 71 3.8 NNE 15 24 8 13 1009.9 1009.8 0.2
28/08:30am 30.9 35.6 25.0 71 4.2 S 9 15 5 8 1009.7 1009.6 0.2
28/08:00am 30.2 35.8 25.7 77 3.2 S 7 11 4 6 1009.4 1009.3 0.2
28/07:30am 28.7 34.6 25.3 82 2.4 S 4 7 2 4 1009.5 1009.4 0.2
28/07:00am 28.4 34.1 25.6 85 2.0 S 6 9 3 5 1009.0 1008.9 0.2
28/06:30am 26.8 32.1 25.0 90 1.3 S 6 9 3 5 1008.7 1008.6 0.2
28/06:00am 26.3 31.3 24.5 90 1.2 S 6 7 3 4 1008.0 1007.9 0.2
28/05:30am 26.1 30.9 24.1 89 1.4 S 6 7 3 4 1007.6 1007.5 0.2
28/05:00am 26.5 31.9 24.5 89 1.4 S 4 4 2 2 1007.4 1007.3 0.2
28/04:30am 26.5 31.4 24.3 88 1.5 S 6 6 3 3 1007.6 1007.5 0.2
28/04:00am 26.7 32.1 24.5 88 1.5 S 4 6 2 3 1007.6 1007.5 0.2
28/03:30am 26.7 32.5 24.5 88 1.5 S 2 4 1 2 1007.3 1007.2 0.2
28/03:00am 26.8 32.4 24.8 89 1.4 S 4 6 2 3 1007.3 1007.2 0.2
28/02:30am 26.8 33.1 24.8 89 1.4 CALM 0 0 0 0 1007.4 1007.3 0.2
28/02:00am 26.4 31.7 24.4 89 1.4 S 4 4 2 2 1007.5 1007.4 0.2
28/01:30am 26.2 31.0 24.2 89 1.4 S 6 6 3 3 1007.7 1007.6 0.2
28/01:00am 26.7 31.7 24.5 88 1.5 S 6 6 3 3 1008.1 1008.0 0.2
28/12:30am 26.7 32.5 24.5 88 1.5 S 2 2 1 1 1008.4 1008.3 0.2
28/12:00am 26.9 32.7 24.5 87 1.7 S 2 2 1 1 1008.5 1008.4 0.2
 
Date/Time
CST
Temp
°C
App
Temp
°C
Dew
Point
°C
Rel
Hum
%
Delta-T
°C
Wind Press
QNH
hPa
Press
MSL
hPa
Rain since
9am
mm
Dir  Spd
km/h
Gust
km/h
Spd
kts
Gust
kts
27/11:30pm 26.6 31.5 23.7 84 2.0 S 4 6 2 3 1008.7 1008.6 0.2
27/11:00pm 27.0 31.9 24.3 85 1.9 S 6 6 3 3 1008.8 1008.7 0.2
27/10:30pm 27.1 32.8 24.4 85 1.9 S 2 2 1 1 1009.0 1008.9 0.2
27/10:00pm 27.2 32.5 24.3 84 2.0 S 4 4 2 2 1008.7 1008.6 0.2
27/09:30pm 27.2 32.6 24.5 85 1.9 S 4 6 2 3 1008.5 1008.4 0.2
27/09:00pm 27.4 32.8 24.5 84 2.0 S 4 7 2 4 1008.1 1008.0 0.2
27/08:30pm 27.7 32.8 24.1 81 2.5 S 4 7 2 4 1007.8 1007.7 0.2
27/08:00pm 28.0 33.5 24.6 82 2.4 S 4 6 2 3 1007.5 1007.4 0.2
27/07:30pm 28.4 33.6 24.8 81 2.5 S 6 7 3 4 1007.4 1007.3 0.2
27/07:00pm 29.1 34.2 24.7 77 3.1 S 6 9 3 5 1007.3 1007.2 0.2
27/06:30pm 29.7 34.7 23.9 71 4.0 S 4 6 2 3 1007.1 1007.0 0.2
27/06:00pm 30.1 35.1 23.8 69 4.4 S 4 6 2 3 1006.9 1006.8 0.2
27/05:30pm 30.7 35.8 24.1 68 4.6 S 4 6 2 3 1006.6 1006.5 0.2
27/05:00pm 29.9 34.2 23.3 67 4.5 S 6 7 3 4 1006.6 1006.5 0.2
27/04:30pm 30.2 34.5 23.6 67 4.6 S 7 13 4 7 1006.9 1006.8 0.2
27/04:00pm 31.2 36.0 24.1 66 4.9 SSW 6 7 3 4 1006.8 1006.7 0.2
27/03:30pm 31.6 36.5 23.7 63 5.5 SSW 4 7 2 4 1006.7 1006.6 0.2
27/03:00pm 31.8 36.3 23.9 63 5.5 SSW 7 9 4 5 1007.1 1007.0 0.2
27/02:30pm 30.4 35.5 23.3 66 4.9 E 2 6 1 3 1007.2 1007.1 0.2
27/02:00pm 29.8 33.9 23.0 67 4.7 E 6 7 3 4 1007.5 1007.4 0.2
27/01:30pm 30.6 33.7 23.5 66 4.9 E 13 22 7 12 1008.0 1007.9 0.2

Other formats

Comma delimited format used in spreadsheet applications
http://www.bom.gov.au/fwo/IDD60801/IDD60801.94108.axf

JavaScript Object Notation format (JSON) in row-major order
http://www.bom.gov.au/fwo/IDD60801/IDD60801.94108.json

Data quality

Most of these data are generated automatically and are frequently updated. Quality checks on data are not normally performed. It is possible for incorrect values to appear. Refer to information at About Latest Weather Observations and please check the disclaimer before using these data.